createdAt,value
2018-03-06T00:00:00.049Z,5.94
2018-03-06T00:02:27.523Z,6.13
2018-03-06T00:04:54.922Z,5.93
2018-03-06T00:07:22.314Z,5.70
2018-03-06T00:09:49.749Z,5.70
2018-03-06T00:12:17.346Z,5.79
2018-03-06T00:14:44.754Z,5.83
2018-03-06T00:17:12.170Z,5.70
2018-03-06T00:19:39.577Z,5.89
2018-03-06T00:22:06.998Z,5.94
2018-03-06T00:24:34.418Z,5.92
2018-03-06T00:27:01.825Z,5.99
2018-03-06T00:29:29.242Z,6.00
2018-03-06T00:31:56.637Z,5.64
2018-03-06T00:34:24.077Z,5.66
2018-03-06T00:36:51.536Z,6.02
2018-03-06T00:39:18.938Z,5.99
2018-03-06T00:41:46.343Z,5.97
2018-03-06T00:44:13.756Z,6.03
2018-03-06T00:46:41.181Z,5.75
2018-03-06T00:49:08.624Z,5.82
2018-03-06T00:51:36.028Z,6.04
2018-03-06T00:54:03.433Z,5.98
2018-03-06T00:56:30.904Z,5.79
2018-03-06T00:58:58.317Z,5.65
2018-03-06T01:01:25.742Z,5.51
2018-03-06T01:03:53.167Z,5.61
2018-03-06T01:06:20.588Z,5.89
2018-03-06T01:08:47.996Z,5.93
2018-03-06T01:11:15.422Z,5.93
2018-03-06T01:13:42.836Z,5.97
2018-03-06T01:16:10.250Z,5.91
2018-03-06T01:18:37.667Z,5.97
2018-03-06T01:21:05.131Z,5.95
2018-03-06T01:23:33.247Z,5.77
2018-03-06T01:26:00.670Z,5.67
2018-03-06T01:28:28.349Z,5.80
2018-03-06T01:30:55.830Z,5.89
2018-03-06T01:33:23.482Z,5.92
2018-03-06T01:35:50.936Z,5.50
2018-03-06T01:38:18.338Z,5.39
2018-03-06T01:40:45.742Z,5.65
2018-03-06T01:43:13.190Z,5.32
2018-03-06T01:45:40.671Z,5.63
2018-03-06T01:48:08.090Z,6.01
2018-03-06T01:50:36.070Z,5.96
2018-03-06T01:53:03.506Z,5.83
2018-03-06T01:55:30.942Z,5.70
2018-03-06T01:57:58.342Z,5.88
2018-03-06T02:00:25.785Z,6.06
2018-03-06T02:02:53.237Z,5.58
2018-03-06T02:05:20.646Z,5.87
2018-03-06T02:07:48.052Z,5.94
2018-03-06T02:10:15.534Z,5.83
2018-03-06T02:12:42.993Z,5.69
2018-03-06T02:15:10.453Z,5.93
2018-03-06T02:17:38.671Z,6.00
2018-03-06T02:20:06.081Z,5.94
2018-03-06T02:22:33.486Z,5.69
2018-03-06T02:25:00.946Z,5.74
2018-03-06T02:27:28.346Z,5.99
2018-03-06T02:29:55.761Z,5.96
2018-03-06T02:32:23.213Z,5.79
2018-03-06T02:34:50.626Z,5.96
2018-03-06T02:37:18.038Z,5.72
2018-03-06T02:39:45.477Z,5.84
2018-03-06T02:42:12.901Z,5.97
2018-03-06T02:44:40.301Z,6.05
2018-03-06T02:47:07.792Z,6.28
2018-03-06T02:49:35.170Z,5.95
2018-03-06T02:52:02.565Z,6.13
2018-03-06T02:54:29.977Z,6.09
2018-03-06T02:56:57.410Z,6.10
2018-03-06T02:59:24.835Z,6.17
2018-03-06T03:01:52.251Z,6.28
2018-03-06T03:04:19.706Z,6.24
2018-03-06T03:06:47.114Z,6.22
2018-03-06T03:09:14.537Z,6.38
2018-03-06T03:11:41.941Z,6.33
2018-03-06T03:14:09.405Z,6.44
2018-03-06T03:16:36.810Z,6.54
2018-03-06T03:19:04.205Z,6.43
2018-03-06T03:21:31.657Z,6.16
2018-03-06T03:23:59.066Z,5.93
2018-03-06T03:26:26.474Z,6.23
2018-03-06T03:28:53.918Z,6.06
2018-03-06T03:31:21.348Z,6.30
2018-03-06T03:33:48.753Z,6.40
2018-03-06T03:36:16.146Z,6.41
2018-03-06T03:38:43.558Z,6.23
2018-03-06T03:41:11.017Z,6.34
2018-03-06T03:43:38.421Z,6.18
2018-03-06T03:46:05.838Z,6.01
2018-03-06T03:48:33.286Z,6.18
2018-03-06T03:51:00.695Z,6.14
2018-03-06T03:53:28.113Z,6.14
2018-03-06T03:55:55.541Z,6.26
2018-03-06T03:58:22.937Z,6.15
2018-03-06T04:00:50.371Z,6.17
2018-03-06T04:03:17.822Z,6.32
2018-03-06T04:05:45.237Z,6.45
2018-03-06T04:08:12.651Z,6.51
2018-03-06T04:10:40.075Z,6.13
2018-03-06T04:13:07.482Z,6.18
2018-03-06T04:15:35.082Z,6.48
2018-03-06T04:18:02.506Z,6.52
2018-03-06T04:20:29.938Z,6.16
2018-03-06T04:22:57.345Z,6.27
2018-03-06T04:25:24.806Z,6.34
2018-03-06T04:27:52.217Z,6.30
2018-03-06T04:30:19.610Z,6.39
2018-03-06T04:32:47.010Z,6.37
2018-03-06T04:35:14.430Z,6.24
2018-03-06T04:37:41.854Z,6.39
2018-03-06T04:40:09.293Z,6.45
2018-03-06T04:42:36.694Z,6.39
2018-03-06T04:45:04.130Z,6.45
2018-03-06T04:47:31.537Z,6.47
2018-03-06T04:49:58.937Z,6.62
2018-03-06T04:52:26.386Z,6.40
2018-03-06T04:54:53.842Z,6.48
2018-03-06T04:57:21.273Z,6.55
2018-03-06T04:59:48.681Z,6.65
2018-03-06T05:02:16.144Z,6.61
2018-03-06T05:04:46.558Z,6.80
2018-03-06T05:07:13.973Z,6.66
2018-03-06T05:09:41.372Z,6.66
2018-03-06T05:12:08.786Z,6.76
2018-03-06T05:14:36.221Z,6.69
2018-03-06T05:17:03.628Z,6.74
2018-03-06T05:19:31.037Z,6.82
2018-03-06T05:21:58.453Z,6.72
2018-03-06T05:24:25.909Z,6.48
2018-03-06T05:26:53.358Z,6.61
2018-03-06T05:29:20.777Z,6.88
2018-03-06T05:31:48.202Z,6.97
2018-03-06T05:34:15.618Z,7.11
2018-03-06T05:36:43.077Z,7.13
2018-03-06T05:39:10.498Z,7.03
2018-03-06T05:41:37.898Z,7.05
2018-03-06T05:44:05.313Z,7.07
2018-03-06T05:46:32.736Z,7.27
2018-03-06T05:49:00.145Z,7.21
2018-03-06T05:51:27.601Z,7.08
2018-03-06T05:53:55.025Z,6.87
2018-03-06T05:56:22.418Z,7.15
2018-03-06T05:58:49.873Z,7.13
2018-03-06T06:01:17.298Z,6.92
2018-03-06T06:03:44.713Z,7.11
2018-03-06T06:06:12.142Z,7.25
2018-03-06T06:08:39.603Z,7.13
2018-03-06T06:11:07.065Z,6.89
2018-03-06T06:13:34.483Z,6.86
2018-03-06T06:16:01.874Z,7.14
2018-03-06T06:18:29.498Z,7.23
2018-03-06T06:20:56.877Z,6.98
2018-03-06T06:23:24.266Z,7.11
2018-03-06T06:25:51.686Z,7.16
2018-03-06T06:28:19.065Z,7.19
2018-03-06T06:30:47.346Z,7.17
2018-03-06T06:33:14.778Z,7.01
2018-03-06T06:35:42.168Z,7.01
2018-03-06T06:38:09.569Z,7.11
2018-03-06T06:40:36.973Z,7.13
2018-03-06T06:43:04.376Z,7.26
2018-03-06T06:45:31.801Z,7.25
2018-03-06T06:47:59.201Z,7.20
2018-03-06T06:50:26.744Z,7.24
2018-03-06T06:52:54.125Z,7.64
2018-03-06T06:55:21.601Z,7.55
2018-03-06T06:57:48.993Z,7.37
2018-03-06T07:00:16.405Z,7.49
2018-03-06T07:02:43.822Z,7.24
2018-03-06T07:05:11.215Z,7.52
2018-03-06T07:07:38.614Z,7.58
2018-03-06T07:10:06.014Z,7.81
2018-03-06T07:12:33.420Z,7.64
2018-03-06T07:15:00.849Z,7.68
2018-03-06T07:17:28.231Z,7.47
2018-03-06T07:19:55.644Z,7.35
2018-03-06T07:22:23.065Z,7.59
2018-03-06T07:24:50.522Z,7.61
2018-03-06T07:27:17.975Z,7.61
2018-03-06T07:29:45.357Z,7.58
2018-03-06T07:32:12.747Z,7.69
2018-03-06T07:34:40.137Z,7.88
2018-03-06T07:37:07.519Z,7.90
2018-03-06T07:39:34.945Z,7.89
2018-03-06T07:42:02.385Z,7.84
2018-03-06T07:44:29.845Z,7.87
2018-03-06T07:46:57.293Z,7.84
2018-03-06T07:49:24.686Z,7.83
2018-03-06T07:51:52.249Z,7.79
2018-03-06T07:54:19.639Z,7.86
2018-03-06T07:56:47.026Z,8.03
2018-03-06T07:59:14.421Z,7.94
2018-03-06T08:01:41.806Z,8.13
2018-03-06T08:04:09.194Z,8.11
2018-03-06T08:06:36.721Z,8.28
2018-03-06T08:09:04.314Z,8.49
2018-03-06T08:11:31.754Z,8.64
2018-03-06T08:13:59.158Z,8.45
2018-03-06T08:16:26.553Z,8.40
2018-03-06T08:18:53.941Z,8.24
2018-03-06T08:21:21.338Z,8.46
2018-03-06T08:23:48.741Z,8.34
2018-03-06T08:26:16.337Z,8.32
2018-03-06T08:28:43.761Z,8.31
2018-03-06T08:31:11.176Z,8.70
2018-03-06T08:33:38.812Z,8.63
2018-03-06T08:36:06.435Z,8.63
2018-03-06T08:38:33.927Z,8.87
2018-03-06T08:41:01.350Z,8.71
2018-03-06T08:43:28.801Z,8.77
2018-03-06T08:45:56.185Z,9.15
2018-03-06T08:48:23.574Z,9.15
2018-03-06T08:50:50.997Z,9.33
2018-03-06T08:53:18.455Z,8.89
2018-03-06T08:55:45.862Z,8.35
2018-03-06T08:58:13.296Z,8.42
2018-03-06T09:00:40.682Z,8.71
2018-03-06T09:03:08.075Z,8.91
2018-03-06T09:05:35.527Z,8.85
2018-03-06T09:08:02.917Z,9.13
2018-03-06T09:10:30.306Z,9.29
2018-03-06T09:12:57.735Z,9.36
2018-03-06T09:15:25.131Z,9.64
2018-03-06T09:17:52.514Z,9.64
2018-03-06T09:20:19.942Z,9.81
2018-03-06T09:22:47.353Z,9.95
2018-03-06T09:25:14.787Z,9.54
2018-03-06T09:27:42.209Z,9.74
2018-03-06T09:30:09.598Z,9.86
2018-03-06T09:32:36.996Z,9.95
2018-03-06T09:35:04.485Z,9.99
2018-03-06T09:37:32.012Z,10.10
2018-03-06T09:39:59.473Z,10.20
2018-03-06T09:42:26.906Z,10.07
2018-03-06T09:44:54.336Z,10.16
2018-03-06T09:47:21.745Z,10.06
2018-03-06T09:49:49.140Z,9.92
2018-03-06T09:52:16.571Z,10.08
2018-03-06T09:54:44.495Z,9.67
2018-03-06T09:57:11.882Z,9.53
2018-03-06T09:59:39.330Z,9.92
2018-03-06T10:02:06.768Z,10.20
2018-03-06T10:04:34.155Z,10.10
2018-03-06T10:07:01.564Z,9.98
2018-03-06T10:09:28.989Z,10.06
2018-03-06T10:11:56.399Z,10.26
2018-03-06T10:14:23.789Z,10.07
2018-03-06T10:16:51.228Z,10.39
2018-03-06T10:19:18.622Z,10.32
2018-03-06T10:21:46.006Z,10.19
2018-03-06T10:24:13.415Z,10.36
2018-03-06T10:26:40.957Z,10.68
2018-03-06T10:29:08.366Z,10.48
2018-03-06T10:31:35.777Z,10.11
2018-03-06T10:34:03.202Z,10.50
2018-03-06T10:36:30.673Z,10.67
2018-03-06T10:38:58.037Z,10.85
2018-03-06T10:41:25.458Z,10.41
2018-03-06T10:43:52.901Z,10.59
2018-03-06T10:46:20.294Z,10.46
2018-03-06T10:48:47.727Z,10.45
2018-03-06T10:51:15.158Z,10.46
2018-03-06T10:53:42.546Z,10.58
2018-03-06T10:56:09.933Z,10.70
2018-03-06T10:58:37.358Z,11.07
2018-03-06T11:01:04.781Z,10.89
2018-03-06T11:03:32.181Z,10.90
2018-03-06T11:05:59.654Z,10.88
2018-03-06T11:08:27.081Z,11.22
2018-03-06T11:10:54.486Z,10.80
2018-03-06T11:13:21.953Z,10.98
2018-03-06T11:15:49.337Z,11.32
2018-03-06T11:18:16.729Z,11.62
2018-03-06T11:20:44.161Z,11.83
2018-03-06T11:23:11.554Z,11.87
2018-03-06T11:25:38.973Z,12.37
2018-03-06T11:28:06.447Z,12.34
2018-03-06T11:30:33.855Z,12.22
2018-03-06T11:33:01.274Z,12.41
2018-03-06T11:35:28.824Z,12.46
2018-03-06T11:37:56.245Z,12.38
2018-03-06T11:40:23.688Z,12.35
2018-03-06T11:42:51.107Z,12.21
2018-03-06T11:45:18.502Z,12.11
2018-03-06T11:47:45.904Z,10.95
2018-03-06T11:50:13.310Z,11.22
2018-03-06T11:52:41.549Z,11.29
2018-03-06T11:55:09.718Z,11.25
2018-03-06T11:57:37.123Z,11.04
2018-03-06T12:00:04.586Z,10.98
2018-03-06T12:02:31.982Z,11.00
2018-03-06T12:04:59.414Z,10.88
2018-03-06T12:07:26.901Z,10.61
2018-03-06T12:09:54.338Z,10.66
2018-03-06T12:12:21.835Z,10.69
2018-03-06T12:14:49.234Z,10.77
2018-03-06T12:17:16.647Z,10.75
2018-03-06T12:19:44.042Z,11.02
2018-03-06T12:22:11.435Z,11.04
2018-03-06T12:24:38.854Z,11.00
2018-03-06T12:27:10.353Z,10.65
2018-03-06T12:29:37.750Z,10.68
2018-03-06T12:32:05.153Z,10.63
2018-03-06T12:34:32.588Z,10.83
2018-03-06T12:36:59.982Z,10.74
2018-03-06T12:39:28.350Z,11.01
2018-03-06T12:41:55.790Z,11.35
2018-03-06T12:44:23.187Z,11.60
2018-03-06T12:46:50.639Z,11.54
2018-03-06T12:49:18.068Z,11.36
2018-03-06T12:51:46.118Z,11.12
2018-03-06T12:54:13.562Z,10.89
2018-03-06T12:56:40.994Z,11.02
2018-03-06T12:59:08.386Z,11.33
2018-03-06T13:01:35.879Z,11.48
2018-03-06T13:04:03.295Z,11.34
2018-03-06T13:06:30.722Z,10.77
2018-03-06T13:08:58.134Z,11.11
2018-03-06T13:11:25.562Z,11.13
2018-03-06T13:13:53.008Z,10.78
2018-03-06T13:16:20.435Z,10.59
2018-03-06T13:18:47.863Z,11.00
2018-03-06T13:21:15.265Z,11.88
2018-03-06T13:23:42.669Z,11.92
2018-03-06T13:26:10.057Z,11.83
2018-03-06T13:28:37.449Z,12.02
2018-03-06T13:31:04.852Z,11.26
2018-03-06T13:33:32.278Z,10.96
2018-03-06T13:35:59.673Z,10.79
2018-03-06T13:38:27.067Z,10.74
2018-03-06T13:40:54.495Z,10.62
2018-03-06T13:43:21.909Z,10.63
2018-03-06T13:45:49.289Z,10.56
2018-03-06T13:48:17.749Z,10.46
2018-03-06T13:50:45.279Z,10.91
2018-03-06T13:53:12.699Z,10.50
2018-03-06T13:55:40.102Z,10.89
2018-03-06T13:58:07.501Z,10.49
2018-03-06T14:00:34.932Z,10.49
2018-03-06T14:03:02.362Z,10.80
2018-03-06T14:05:29.762Z,10.57
2018-03-06T14:07:57.153Z,10.66
2018-03-06T14:10:24.573Z,10.91
2018-03-06T14:12:52.562Z,10.32
2018-03-06T14:15:19.990Z,10.44
2018-03-06T14:17:47.382Z,10.75
2018-03-06T14:20:14.790Z,10.79
2018-03-06T14:22:42.217Z,10.86
2018-03-06T14:25:09.622Z,11.07
2018-03-06T14:27:37.016Z,11.30
2018-03-06T14:30:04.469Z,11.42
2018-03-06T14:32:31.950Z,11.21
2018-03-06T14:34:59.538Z,11.38
2018-03-06T14:37:27.023Z,11.34
2018-03-06T14:39:54.410Z,11.30
2018-03-06T14:42:21.806Z,11.26
2018-03-06T14:44:49.197Z,10.74
2018-03-06T14:47:16.823Z,10.55
2018-03-06T14:49:44.234Z,10.54
2018-03-06T14:52:11.639Z,10.98
2018-03-06T14:54:39.063Z,10.53
2018-03-06T14:57:06.502Z,10.59
2018-03-06T14:59:33.890Z,11.17
2018-03-06T15:02:01.309Z,10.99
2018-03-06T15:04:28.725Z,10.56
2018-03-06T15:06:56.123Z,10.45
2018-03-06T15:09:23.618Z,10.83
2018-03-06T15:11:51.048Z,10.91
2018-03-06T15:14:18.439Z,10.53
2018-03-06T15:16:45.831Z,10.42
2018-03-06T15:19:13.298Z,10.72
2018-03-06T15:21:40.708Z,10.75
2018-03-06T15:24:08.101Z,10.67
2018-03-06T15:26:35.566Z,10.56
2018-03-06T15:29:02.962Z,10.39
2018-03-06T15:31:30.500Z,10.14
2018-03-06T15:33:59.592Z,10.39
2018-03-06T15:36:27.059Z,10.37
2018-03-06T15:38:54.471Z,10.53
2018-03-06T15:41:21.923Z,10.06
2018-03-06T15:43:49.347Z,9.94
2018-03-06T15:46:20.003Z,9.78
2018-03-06T15:48:48.212Z,10.00
2018-03-06T15:51:15.635Z,9.85
2018-03-06T15:53:43.068Z,10.00
2018-03-06T15:56:10.495Z,9.73
2018-03-06T15:58:37.945Z,9.65
2018-03-06T16:01:05.460Z,9.94
2018-03-06T16:03:32.947Z,9.83
2018-03-06T16:06:00.514Z,10.04
2018-03-06T16:08:28.075Z,10.00
2018-03-06T16:10:55.507Z,10.15
2018-03-06T16:13:22.927Z,9.71
2018-03-06T16:15:50.386Z,9.50
2018-03-06T16:18:17.807Z,9.90
2018-03-06T16:20:45.235Z,10.00
2018-03-06T16:23:12.785Z,10.05
2018-03-06T16:25:40.223Z,10.07
2018-03-06T16:28:07.688Z,10.18
2018-03-06T16:30:35.368Z,10.05
2018-03-06T16:33:02.787Z,10.11
2018-03-06T16:35:30.222Z,10.00
2018-03-06T16:37:57.751Z,10.05
2018-03-06T16:40:25.237Z,10.14
2018-03-06T16:42:52.740Z,10.21
2018-03-06T16:45:20.173Z,10.13
2018-03-06T16:47:47.642Z,10.26
2018-03-06T16:50:15.086Z,10.15
2018-03-06T16:52:42.511Z,10.17
2018-03-06T16:55:10.039Z,10.11
2018-03-06T16:57:37.500Z,9.98
2018-03-06T17:00:04.960Z,10.12
2018-03-06T17:02:32.602Z,10.22
2018-03-06T17:05:00.068Z,10.09
2018-03-06T17:07:27.533Z,10.09
2018-03-06T17:09:54.987Z,10.02
2018-03-06T17:12:22.427Z,9.93
2018-03-06T17:14:49.855Z,9.87
2018-03-06T17:17:17.330Z,9.51
2018-03-06T17:19:44.752Z,9.63
2018-03-06T17:22:12.221Z,9.57
2018-03-06T17:24:39.656Z,9.51
2018-03-06T17:27:07.120Z,9.76
2018-03-06T17:29:34.551Z,9.63
2018-03-06T17:32:01.988Z,9.84
2018-03-06T17:34:29.475Z,9.53
2018-03-06T17:36:56.937Z,9.51
2018-03-06T17:39:24.360Z,9.64
2018-03-06T17:41:51.815Z,9.84
2018-03-06T17:44:19.255Z,9.81
2018-03-06T17:46:46.738Z,9.84
2018-03-06T17:49:14.173Z,9.85
2018-03-06T17:51:41.643Z,9.91
2018-03-06T17:54:09.128Z,9.86
2018-03-06T17:56:36.564Z,9.98
2018-03-06T17:59:04.068Z,9.86
2018-03-06T18:01:31.601Z,10.00
2018-03-06T18:03:59.112Z,10.00
2018-03-06T18:06:26.551Z,9.88
2018-03-06T18:08:55.688Z,9.78
2018-03-06T18:11:23.155Z,10.09
2018-03-06T18:13:50.596Z,9.91
2018-03-06T18:16:18.077Z,9.83
2018-03-06T18:18:45.535Z,9.82
2018-03-06T18:21:13.015Z,9.92
2018-03-06T18:23:40.473Z,9.98
2018-03-06T18:26:07.953Z,-134.57
2018-03-06T18:28:35.481Z,-134.57
2018-03-06T18:31:02.969Z,-134.57
2018-03-06T18:33:30.487Z,-134.57
2018-03-06T18:35:57.953Z,-134.57
2018-03-06T18:38:25.415Z,-134.57
2018-03-06T18:40:52.880Z,-134.57
2018-03-06T18:43:20.370Z,-134.57
2018-03-06T18:45:47.819Z,-134.57
2018-03-06T18:48:15.285Z,-134.57
2018-03-06T18:50:54.427Z,-134.57
2018-03-06T18:53:22.167Z,-134.57
2018-03-06T18:55:49.628Z,-134.57
2018-03-06T18:58:17.087Z,-134.57
2018-03-06T19:01:05.143Z,-134.57
2018-03-06T19:03:44.439Z,-134.57
